Time;durP1;ratioP1;P1;durP2;ratioP2;P2;SDS_P1;SDS_P2;PMS_P1;PMS_P2;Temp;Humidity;BMP_temperature;BMP_pressure;BME280_temperature;BME280_humidity;BME280_pressure;Samples;Min_cycle;Max_cycle;Signal;HPM_P1;HPM_P2
2021/01/28 00:00:37;;;;;;;;;;;;;;;;;;5057407;28;893;-70
2021/01/28 00:03:04;;;;;;;;;;;;;;;;;;5057339;28;960;-70
2021/01/28 00:05:30;;;;;;;;;;;;;;;;;;5056964;28;1890;-70
2021/01/28 00:07:56;;;;;;;;;;;;;;;;;;5057352;28;865;-70
2021/01/28 00:10:21;;;;;;;;;;;;;;;;;;5057181;28;963;-70
2021/01/28 00:12:47;;;;;;;;;;;;;;;;;;5057184;28;987;-70
2021/01/28 00:15:14;;;;;;;;;;;;;;;;;;5056960;28;1409;-70
2021/01/28 00:17:39;;;;;;;;;;;;;;;;;;5057070;28;1307;-70
2021/01/28 00:20:14;;;;;;;;;;;;;;;;;;5056262;28;945;-70
2021/01/28 00:22:39;;;;;;;;;;;;;;;;;;5057124;28;885;-70
2021/01/28 00:25:04;;;;;;;;;;;;;;;;;;5056664;28;1969;-70
2021/01/28 00:27:30;;;;;;;;;;;;;;;;;;5056720;28;1142;-70
2021/01/28 00:29:55;;;;;;;;;;;;;;;;;;5054614;28;837;-70
2021/01/28 00:32:20;;;;;;;;;;;;;;;;;;5056617;28;900;-70
2021/01/28 00:34:45;;;;;;;;;;;;;;;;;;5056733;28;1389;-70
2021/01/28 00:37:11;;;;;;;;;;;;;;;;;;5057121;28;930;-70
2021/01/28 00:39:36;;;;;;;;;;;;;;;;;;5038745;28;1338;-70
2021/01/28 00:42:01;;;;;;;;;;;;;;;;;;5055093;28;1245;-70
2021/01/28 00:44:26;;;;;;;;;;;;;;;;;;5060901;28;1965;-70
2021/01/28 00:46:52;;;;;;;;;;;;;;;;;;5065040;28;1420;-70
2021/01/28 00:49:17;;;;;;;;;;;;;;;;;;5056374;28;822;-70
2021/01/28 00:51:42;;;;;;;;;;;;;;;;;;5054776;28;966;-70
2021/01/28 00:54:07;;;;;;;;;;;;;;;;;;5056589;28;825;-70
2021/01/28 00:56:33;;;;;;;;;;;;;;;;;;5055066;28;2137;-70
2021/01/28 00:58:58;;;;;;;;;;;;;;;;;;5056384;28;857;-70
2021/01/28 01:01:23;;;;;;;;;;;;;;;;;;5056360;28;855;-70
2021/01/28 01:03:48;;;;;;;;;;;;;;;;;;5055851;28;972;-70
2021/01/28 01:06:14;;;;;;;;;;;;;;;;;;5055990;28;1957;-70
2021/01/28 01:08:39;;;;;;;;;;;;;;;;;;5056203;28;1027;-70
2021/01/28 01:11:10;;;;;;;;;;;;;;;;;;5056199;28;980;-70
2021/01/28 01:13:36;;;;;;;;;;;;;;;;;;5055730;28;864;-70
2021/01/28 01:16:03;;;;;;;;;;;;;;;;;;5055805;28;1408;-71
2021/01/28 01:18:32;;;;;;;;;;;;;;;;;;5056109;28;944;-70
2021/01/28 01:20:57;;;;;;;;;;;;;;;;;;5055984;28;877;-70
2021/01/28 01:23:23;;;;;;;;;;;;;;;;;;5054529;28;842;-70
2021/01/28 01:25:48;;;;;;;;;;;;;;;;;;5055644;28;1913;-71
2021/01/28 01:28:14;;;;;;;;;;;;;;;;;;5055302;28;877;-70
2021/01/28 01:30:39;;;;;;;;;;;;;;;;;;5054699;28;1455;-70
2021/01/28 01:33:05;;;;;;;;;;;;;;;;;;5055512;28;940;-70
2021/01/28 01:35:30;;;;;;;;;;;;;;;;;;5054367;28;1278;-70
2021/01/28 01:37:56;;;;;;;;;;;;;;;;;;5054248;28;833;-70
2021/01/28 01:40:42;;;;;;;;;;;;;;;;;;5037680;28;810;-70
2021/01/28 01:43:08;;;;;;;;;;;;;;;;;;5053396;28;1494;-71
2021/01/28 01:45:40;;;;;;;;;;;;;;;;;;5055241;28;1894;-70
2021/01/28 01:48:08;;;;;;;;;;;;;;;;;;5055347;28;829;-70
2021/01/28 01:50:53;;;;;;;;;;;;;;;;;;5054189;28;1452;-70
2021/01/28 01:53:26;;;;;;;;;;;;;;;;;;5054860;28;821;-70
2021/01/28 01:55:55;;;;;;;;;;;;;;;;;;5055335;28;1313;-70
2021/01/28 01:58:25;;;;;;;;;;;;;;;;;;5055230;28;814;-70
2021/01/28 02:00:50;;;;;;;;;;;;;;;;;;5054086;28;1337;-70
2021/01/28 02:03:16;;;;;;;;;;;;;;;;;;5054820;28;1039;-70
2021/01/28 02:05:42;;;;;;;;;;;;;;;;;;5054783;28;1979;-70
2021/01/28 02:08:09;;;;;;;;;;;;;;;;;;5054934;28;1325;-70
2021/01/28 02:10:34;;;;;;;;;;;;;;;;;;5055014;28;865;-70
2021/01/28 02:13:00;;;;;;;;;;;;;;;;;;5053928;28;1132;-70
2021/01/28 02:15:25;;;;;;;;;;;;;;;;;;5054568;28;1286;-70
2021/01/28 02:17:53;;;;;;;;;;;;;;;;;;5053549;28;958;-70
2021/01/28 02:20:30;;;;;;;;;;;;;;;;;;5054837;28;871;-70
2021/01/28 02:23:07;;;;;;;;;;;;;;;;;;5054677;28;1035;-70
2021/01/28 02:25:34;;;;;;;;;;;;;;;;;;5054369;28;1907;-70
2021/01/28 02:28:00;;;;;;;;;;;;;;;;;;5036486;28;1415;-70
2021/01/28 02:30:27;;;;;;;;;;;;;;;;;;5054818;28;993;-70
2021/01/28 02:32:53;;;;;;;;;;;;;;;;;;5053661;28;1243;-70
2021/01/28 02:35:26;;;;;;;;;;;;;;;;;;5052995;28;1431;-70
2021/01/28 02:37:51;;;;;;;;;;;;;;;;;;5054686;28;869;-70
2021/01/28 02:40:19;;;;;;;;;;;;;;;;;;5053293;28;1579;-70
2021/01/28 02:42:44;;;;;;;;;;;;;;;;;;5054120;28;846;-71
2021/01/28 02:45:15;;;;;;;;;;;;;;;;;;5054157;28;1902;-70
2021/01/28 02:47:40;;;;;;;;;;;;;;;;;;5054415;28;1074;-70
2021/01/28 02:50:06;;;;;;;;;;;;;;;;;;5054333;28;892;-70
2021/01/28 02:52:31;;;;;;;;;;;;;;;;;;5053660;28;810;-71
2021/01/28 02:54:56;;;;;;;;;;;;;;;;;;5054040;28;1376;-71
2021/01/28 02:57:21;;;;;;;;;;;;;;;;;;5054604;28;968;-70
2021/01/28 02:59:47;;;;;;;;;;;;;;;;;;5053503;28;1531;-70
2021/01/28 03:02:13;;;;;;;;;;;;;;;;;;5054510;28;876;-70
2021/01/28 03:04:39;;;;;;;;;;;;;;;;;;5053919;28;1902;-70
2021/01/28 03:07:09;;;;;;;;;;;;;;;;;;5054238;28;951;-71
2021/01/28 03:09:35;;;;;;;;;;;;;;;;;;5054227;28;832;-71
2021/01/28 03:12:00;;;;;;;;;;;;;;;;;;5054121;28;809;-71
2021/01/28 03:14:25;;;;;;;;;;;;;;;;;;5053069;28;1308;-71
2021/01/28 03:16:51;;;;;;;;;;;;;;;;;;5052611;28;1492;-71
2021/01/28 03:19:17;;;;;;;;;;;;;;;;;;5054252;28;812;-70
2021/01/28 03:21:43;;;;;;;;;;;;;;;;;;5054234;28;916;-70
2021/01/28 03:24:08;;;;;;;;;;;;;;;;;;5053015;28;1909;-71
2021/01/28 03:26:33;;;;;;;;;;;;;;;;;;5052524;28;1436;-70
2021/01/28 03:28:58;;;;;;;;;;;;;;;;;;5052737;28;1539;-71
2021/01/28 03:31:23;;;;;;;;;;;;;;;;;;5052675;28;1183;-70
2021/01/28 03:33:49;;;;;;;;;;;;;;;;;;5052674;28;2243;-70
2021/01/28 03:36:14;;;;;;;;;;;;;;;;;;5053777;28;1447;-70
2021/01/28 03:38:39;;;;;;;;;;;;;;;;;;5053662;28;884;-70
2021/01/28 03:41:05;;;;;;;;;;;;;;;;;;5053889;28;809;-70
2021/01/28 03:43:30;;;;;;;;;;;;;;;;;;5053589;28;817;-70
2021/01/28 03:45:55;;;;;;;;;;;;;;;;;;5052330;28;1958;-71
2021/01/28 03:48:20;;;;;;;;;;;;;;;;;;5054144;28;864;-70
2021/01/28 03:50:46;;;;;;;;;;;;;;;;;;5053995;28;963;-70
2021/01/28 03:53:11;;;;;;;;;;;;;;;;;;5052255;28;1303;-71
2021/01/28 03:55:36;;;;;;;;;;;;;;;;;;5053745;28;1337;-70
2021/01/28 03:58:02;;;;;;;;;;;;;;;;;;5052813;28;941;-70
2021/01/28 04:00:31;;;;;;;;;;;;;;;;;;5053945;28;802;-70
2021/01/28 04:02:57;;;;;;;;;;;;;;;;;;5053652;28;996;-70
2021/01/28 04:05:22;;;;;;;;;;;;;;;;;;5054735;28;2590;-70
2021/01/28 04:07:48;;;;;;;;;;;;;;;;;;5057005;28;897;-70
2021/01/28 04:10:15;;;;;;;;;;;;;;;;;;5057403;28;888;-71
2021/01/28 04:12:40;;;;;;;;;;;;;;;;;;5056834;28;869;-70
2021/01/28 04:15:07;;;;;;;;;;;;;;;;;;5057211;28;1444;-70
2021/01/28 04:17:32;;;;;;;;;;;;;;;;;;5056838;28;1417;-71
2021/01/28 04:19:57;;;;;;;;;;;;;;;;;;5057102;28;869;-70
2021/01/28 04:22:23;;;;;;;;;;;;;;;;;;5056767;28;914;-71
2021/01/28 04:24:48;;;;;;;;;;;;;;;;;;5056720;28;1898;-70
2021/01/28 04:27:13;;;;;;;;;;;;;;;;;;5057076;28;870;-71
2021/01/28 04:29:38;;;;;;;;;;;;;;;;;;5057220;28;874;-71
2021/01/28 04:32:04;;;;;;;;;;;;;;;;;;5056776;28;880;-71
2021/01/28 04:34:29;;;;;;;;;;;;;;;;;;5056764;28;976;-71
2021/01/28 04:36:54;;;;;;;;;;;;;;;;;;5056579;28;1354;-71
2021/01/28 04:39:19;;;;;;;;;;;;;;;;;;5055240;28;1450;-71
2021/01/28 04:41:45;;;;;;;;;;;;;;;;;;5056841;28;877;-71
2021/01/28 04:44:11;;;;;;;;;;;;;;;;;;5056107;28;1949;-70
2021/01/28 04:46:39;;;;;;;;;;;;;;;;;;5055344;28;1649;-71
2021/01/28 04:49:05;;;;;;;;;;;;;;;;;;5056442;28;837;-71
2021/01/28 04:51:31;;;;;;;;;;;;;;;;;;5055048;28;1194;-71
2021/01/28 04:54:03;;;;;;;;;;;;;;;;;;5056186;28;874;-71
2021/01/28 04:56:29;;;;;;;;;;;;;;;;;;5054908;28;1374;-71
2021/01/28 04:59:06;;;;;;;;;;;;;;;;;;5056247;28;911;-71
2021/01/28 05:01:32;;;;;;;;;;;;;;;;;;5055196;28;1334;-71
2021/01/28 05:04:00;;;;;;;;;;;;;;;;;;5055384;28;956;-71
2021/01/28 05:06:25;;;;;;;;;;;;;;;;;;5054634;28;1894;-71
2021/01/28 05:08:50;;;;;;;;;;;;;;;;;;5056001;28;900;-71
2021/01/28 05:11:36;;;;;;;;;;;;;;;;;;5054717;28;1241;-71
2021/01/28 05:14:19;;;;;;;;;;;;;;;;;;5055907;28;825;-71
2021/01/28 05:16:46;;;;;;;;;;;;;;;;;;5054771;28;1424;-71
2021/01/28 05:19:24;;;;;;;;;;;;;;;;;;5055983;28;877;-71
2021/01/28 05:22:02;;;;;;;;;;;;;;;;;;5054696;28;897;-71
2021/01/28 05:24:30;;;;;;;;;;;;;;;;;;5055788;28;1907;-71
2021/01/28 05:27:08;;;;;;;;;;;;;;;;;;5055297;28;1322;-71
2021/01/28 05:29:37;;;;;;;;;;;;;;;;;;5055655;28;992;-71
2021/01/28 05:32:03;;;;;;;;;;;;;;;;;;5054469;28;933;-71
2021/01/28 05:34:30;;;;;;;;;;;;;;;;;;5055394;28;833;-71
2021/01/28 05:37:03;;;;;;;;;;;;;;;;;;5054206;28;1401;-71
2021/01/28 05:39:33;;;;;;;;;;;;;;;;;;5054407;28;1207;-71
2021/01/28 05:42:04;;;;;;;;;;;;;;;;;;5055585;28;875;-71
2021/01/28 05:44:30;;;;;;;;;;;;;;;;;;5055185;28;1893;-71
2021/01/28 05:46:59;;;;;;;;;;;;;;;;;;5053820;28;1658;-71
2021/01/28 05:49:24;;;;;;;;;;;;;;;;;;5053820;28;1248;-71
2021/01/28 05:51:50;;;;;;;;;;;;;;;;;;5055125;28;996;-71
2021/01/28 05:54:16;;;;;;;;;;;;;;;;;;5053892;28;1210;-71
2021/01/28 05:56:51;;;;;;;;;;;;;;;;;;5054935;28;1333;-72
2021/01/28 05:59:21;;;;;;;;;;;;;;;;;;5055058;28;1004;-71
2021/01/28 06:01:53;;;;;;;;;;;;;;;;;;5053826;28;1233;-70
2021/01/28 06:04:33;;;;;;;;;;;;;;;;;;5053405;28;1957;-71
2021/01/28 06:07:11;;;;;;;;;;;;;;;;;;5053509;28;1380;-71
2021/01/28 06:09:57;;;;;;;;;;;;;;;;;;5054626;28;877;-71
2021/01/28 06:12:40;;;;;;;;;;;;;;;;;;5054781;28;901;-72
2021/01/28 06:15:05;;;;;;;;;;;;;;;;;;5054778;28;1326;-72
2021/01/28 06:17:51;;;;;;;;;;;;;;;;;;5054579;28;868;-72
2021/01/28 06:20:19;;;;;;;;;;;;;;;;;;5054764;28;988;-71
2021/01/28 06:23:05;;;;;;;;;;;;;;;;;;5053302;28;1416;-71
2021/01/28 06:25:30;;;;;;;;;;;;;;;;;;5054249;28;1901;-71
2021/01/28 06:28:05;;;;;;;;;;;;;;;;;;5052360;28;1243;-72
2021/01/28 06:30:55;;;;;;;;;;;;;;;;;;5054385;28;897;-71
2021/01/28 06:33:20;;;;;;;;;;;;;;;;;;5054425;28;881;-72
2021/01/28 06:35:53;;;;;;;;;;;;;;;;;;5054457;28;1361;-71
2021/01/28 06:38:18;;;;;;;;;;;;;;;;;;5054381;28;814;-71
2021/01/28 06:40:48;;;;;;;;;;;;;;;;;;5053303;28;1213;-72
2021/01/28 06:43:17;;;;;;;;;;;;;;;;;;5054739;28;1027;-72
2021/01/28 06:46:06;;;;;;;;;;;;;;;;;;5054283;28;1897;-72
2021/01/28 06:48:42;;;;;;;;;;;;;;;;;;5054611;28;876;-71
2021/01/28 06:51:14;;;;;;;;;;;;;;;;;;5056242;28;1550;-71
2021/01/28 06:53:48;;;;;;;;;;;;;;;;;;5073371;28;1250;-71
2021/01/28 06:56:22;;;;;;;;;;;;;;;;;;5074356;28;1325;-71
2021/01/28 06:58:59;;;;;;;;;;;;;;;;;;5074092;28;952;-70
2021/01/28 07:01:27;;;;;;;;;;;;;;;;;;5073484;28;901;-72
2021/01/28 07:04:00;;;;;;;;;;;;;;;;;;5074225;28;897;-70
2021/01/28 07:06:39;;;;;;;;;;;;;;;;;;5074254;28;1957;-70
2021/01/28 07:09:14;;;;;;;;;;;;;;;;;;5074279;28;1129;-68
2021/01/28 07:11:43;;;;;;;;;;;;;;;;;;5072942;28;1397;-68
2021/01/28 07:14:12;;;;;;;;;;;;;;;;;;5074028;28;872;-72
2021/01/28 07:16:49;;;;;;;;;;;;;;;;;;5074061;28;1301;-69
2021/01/28 07:19:18;;;;;;;;;;;;;;;;;;5073009;28;1155;-72
2021/01/28 07:21:46;;;;;;;;;;;;;;;;;;5073042;28;1198;-71
2021/01/28 07:24:11;;;;;;;;;;;;;;;;;;5074044;28;1910;-72
2021/01/28 07:26:45;;;;;;;;;;;;;;;;;;5073994;28;1306;-70
2021/01/28 07:29:36;;;;;;;;;;;;;;;;;;5072102;28;950;-69
2021/01/28 07:32:03;;;;;;;;;;;;;;;;;;5073255;28;1157;-72
2021/01/28 07:34:28;;;;;;;;;;;;;;;;;;5073676;28;880;-71
2021/01/28 07:36:58;;;;;;;;;;;;;;;;;;5072441;28;1487;-71
2021/01/28 07:39:30;;;;;;;;;;;;;;;;;;5074980;28;879;-70
2021/01/28 07:41:59;;;;;;;;;;;;;;;;;;5076353;28;1422;-69
2021/01/28 07:44:25;;;;;;;;;;;;;;;;;;5076292;28;1902;-73
2021/01/28 07:46:51;;;;;;;;;;;;;;;;;;5076354;28;1421;-73
2021/01/28 07:49:16;;;;;;;;;;;;;;;;;;5076034;28;1412;-71
2021/01/28 07:51:42;;;;;;;;;;;;;;;;;;5076800;28;1458;-71
2021/01/28 07:54:26;;;;;;;;;;;;;;;;;;5076872;28;955;-70
2021/01/28 07:56:51;;;;;;;;;;;;;;;;;;5076993;28;1420;-70
2021/01/28 07:59:22;;;;;;;;;;;;;;;;;;5075556;28;1218;-70
2021/01/28 08:01:50;;;;;;;;;;;;;;;;;;5076728;28;1297;-73
2021/01/28 08:04:27;;;;;;;;;;;;;;;;;;5077194;28;1956;-70
2021/01/28 08:06:54;;;;;;;;;;;;;;;;;;5076676;28;1423;-72
2021/01/28 08:09:19;;;;;;;;;;;;;;;;;;5076886;28;897;-71
2021/01/28 08:11:48;;;;;;;;;;;;;;;;;;5058831;28;1241;-72
2021/01/28 08:14:14;;;;;;;;;;;;;;;;;;5057036;28;912;-71
2021/01/28 08:16:40;;;;;;;;;;;;;;;;;;5056943;28;1419;-72
2021/01/28 08:19:10;;;;;;;;;;;;;;;;;;5055880;28;893;-70
2021/01/28 08:21:36;;;;;;;;;;;;;;;;;;5055596;28;1396;-70
2021/01/28 08:24:15;;;;;;;;;;;;;;;;;;5055412;28;818;-69
2021/01/28 08:26:42;;;;;;;;;;;;;;;;;;5067980;28;1965;-69
2021/01/28 08:29:19;;;;;;;;;;;;;;;;;;5075353;28;901;-71
2021/01/28 08:31:52;;;;;;;;;;;;;;;;;;5076385;28;1426;-71
2021/01/28 08:34:36;;;;;;;;;;;;;;;;;;5076573;28;938;-71
2021/01/28 08:37:03;;;;;;;;;;;;;;;;;;5073128;28;1630;-69
2021/01/28 08:39:30;;;;;;;;;;;;;;;;;;5072328;28;1574;-72
2021/01/28 08:41:58;;;;;;;;;;;;;;;;;;5076558;28;943;-70
2021/01/28 08:44:24;;;;;;;;;;;;;;;;;;5076200;28;1969;-70
2021/01/28 08:47:01;;;;;;;;;;;;;;;;;;5075246;28;1476;-72
2021/01/28 08:49:26;;;;;;;;;;;;;;;;;;5076178;28;861;-72
2021/01/28 08:51:54;;;;;;;;;;;;;;;;;;5074960;28;821;-70
2021/01/28 08:54:22;;;;;;;;;;;;;;;;;;5076058;28;900;-70
2021/01/28 08:56:49;;;;;;;;;;;;;;;;;;5076116;28;1365;-69
2021/01/28 08:59:16;;;;;;;;;;;;;;;;;;5058265;28;1210;-70
2021/01/28 09:01:44;;;;;;;;;;;;;;;;;;5075784;28;904;-71
2021/01/28 09:04:30;;;;;;;;;;;;;;;;;;5075880;28;829;-72
2021/01/28 09:06:55;;;;;;;;;;;;;;;;;;5070756;28;2189;-70
2021/01/28 09:09:30;;;;;;;;;;;;;;;;;;5076077;28;949;-72
2021/01/28 09:12:17;;;;;;;;;;;;;;;;;;5075998;28;925;-70
2021/01/28 09:14:42;;;;;;;;;;;;;;;;;;5074237;28;1325;-71
2021/01/28 09:17:16;;;;;;;;;;;;;;;;;;5075584;28;926;-70
2021/01/28 09:19:51;;;;;;;;;;;;;;;;;;5075814;28;883;-71
2021/01/28 09:22:23;;;;;;;;;;;;;;;;;;5074026;28;806;-70
2021/01/28 09:24:49;;;;;;;;;;;;;;;;;;5074347;28;1965;-70
2021/01/28 09:27:20;;;;;;;;;;;;;;;;;;5075848;28;867;-71
2021/01/28 09:29:46;;;;;;;;;;;;;;;;;;5075772;28;1256;-70
2021/01/28 09:32:11;;;;;;;;;;;;;;;;;;5074053;28;1432;-70
2021/01/28 09:34:37;;;;;;;;;;;;;;;;;;5075569;28;1318;-72
2021/01/28 09:37:04;;;;;;;;;;;;;;;;;;5074405;28;1262;-69
2021/01/28 09:39:36;;;;;;;;;;;;;;;;;;5055172;28;876;-72
2021/01/28 09:42:21;;;;;;;;;;;;;;;;;;5060493;28;1609;-70
2021/01/28 09:44:49;;;;;;;;;;;;;;;;;;5053867;28;1902;-70
2021/01/28 09:47:14;;;;;;;;;;;;;;;;;;5070624;28;1338;-71
2021/01/28 09:49:40;;;;;;;;;;;;;;;;;;5055184;28;893;-71
2021/01/28 09:52:05;;;;;;;;;;;;;;;;;;5053898;28;1683;-73
2021/01/28 09:54:34;;;;;;;;;;;;;;;;;;5055064;28;963;-72
2021/01/28 09:56:59;;;;;;;;;;;;;;;;;;5055209;28;833;-71
2021/01/28 09:59:25;;;;;;;;;;;;;;;;;;5070333;28;1284;-71
2021/01/28 10:01:50;;;;;;;;;;;;;;;;;;5054501;28;920;-73
2021/01/28 10:04:15;;;;;;;;;;;;;;;;;;5054865;28;868;-69
2021/01/28 10:06:40;;;;;;;;;;;;;;;;;;5054640;28;1898;-70
2021/01/28 10:09:06;;;;;;;;;;;;;;;;;;5054924;28;873;-70
2021/01/28 10:11:31;;;;;;;;;;;;;;;;;;5070078;28;1202;-70
2021/01/28 10:13:58;;;;;;;;;;;;;;;;;;5054652;28;813;-71
2021/01/28 10:16:23;;;;;;;;;;;;;;;;;;5053520;28;1306;-71
2021/01/28 10:18:48;;;;;;;;;;;;;;;;;;5054703;28;802;-70
2021/01/28 10:21:13;;;;;;;;;;;;;;;;;;5054625;28;1160;-70
2021/01/28 10:23:39;;;;;;;;;;;;;;;;;;5053028;28;1203;-72
2021/01/28 10:26:04;;;;;;;;;;;;;;;;;;5054426;28;1951;-69
2021/01/28 10:28:29;;;;;;;;;;;;;;;;;;5054587;28;901;-71
2021/01/28 10:30:55;;;;;;;;;;;;;;;;;;5059635;28;1217;-70
2021/01/28 10:33:23;;;;;;;;;;;;;;;;;;5066811;28;842;-71
2021/01/28 10:35:48;;;;;;;;;;;;;;;;;;5074344;28;1305;-72
2021/01/28 10:38:13;;;;;;;;;;;;;;;;;;5073250;28;1305;-72
2021/01/28 10:40:38;;;;;;;;;;;;;;;;;;5074481;28;908;-72
2021/01/28 10:43:05;;;;;;;;;;;;;;;;;;5074382;28;999;-72
2021/01/28 10:45:34;;;;;;;;;;;;;;;;;;5072761;28;1897;-72
2021/01/28 10:48:00;;;;;;;;;;;;;;;;;;5060368;28;2001;-73
2021/01/28 10:50:25;;;;;;;;;;;;;;;;;;5054531;28;789;-71
2021/01/28 10:52:51;;;;;;;;;;;;;;;;;;5052764;28;1227;-72
2021/01/28 10:55:17;;;;;;;;;;;;;;;;;;5053922;28;1354;-70
2021/01/28 10:57:43;;;;;;;;;;;;;;;;;;5053073;28;1191;-72
2021/01/28 11:00:09;;;;;;;;;;;;;;;;;;5053400;28;1101;-69
2021/01/28 11:02:34;;;;;;;;;;;;;;;;;;5053961;28;1312;-69
2021/01/28 11:04:59;;;;;;;;;;;;;;;;;;5052681;28;1906;-72
2021/01/28 11:07:25;;;;;;;;;;;;;;;;;;5054248;28;845;-71
2021/01/28 11:09:50;;;;;;;;;;;;;;;;;;5054230;28;870;-70
2021/01/28 11:12:15;;;;;;;;;;;;;;;;;;5054106;28;805;-72
2021/01/28 11:14:41;;;;;;;;;;;;;;;;;;5054683;28;1298;-69
2021/01/28 11:17:06;;;;;;;;;;;;;;;;;;5056784;28;1449;-72
2021/01/28 11:19:31;;;;;;;;;;;;;;;;;;5074135;28;1131;-69
2021/01/28 11:21:56;;;;;;;;;;;;;;;;;;5077094;28;940;-72
2021/01/28 11:24:21;;;;;;;;;;;;;;;;;;5076367;28;1905;-71
2021/01/28 11:26:47;;;;;;;;;;;;;;;;;;5077981;28;1453;-71
2021/01/28 11:29:12;;;;;;;;;;;;;;;;;;5077856;28;860;-71
2021/01/28 11:31:38;;;;;;;;;;;;;;;;;;5077766;28;901;-70
2021/01/28 11:34:03;;;;;;;;;;;;;;;;;;5077937;28;837;-69
2021/01/28 11:36:29;;;;;;;;;;;;;;;;;;5077789;28;1322;-70
2021/01/28 11:38:54;;;;;;;;;;;;;;;;;;5076748;28;1249;-71
2021/01/28 11:41:19;;;;;;;;;;;;;;;;;;5077858;28;833;-71
2021/01/28 11:43:44;;;;;;;;;;;;;;;;;;5076315;28;1465;-72
2021/01/28 11:46:09;;;;;;;;;;;;;;;;;;5077487;28;1979;-69
2021/01/28 11:48:35;;;;;;;;;;;;;;;;;;5077780;28;904;-70
2021/01/28 11:51:00;;;;;;;;;;;;;;;;;;5077677;28;964;-71
2021/01/28 11:53:25;;;;;;;;;;;;;;;;;;5077445;28;884;-73
2021/01/28 11:55:51;;;;;;;;;;;;;;;;;;5077276;28;1400;-72
2021/01/28 11:58:19;;;;;;;;;;;;;;;;;;5076284;28;1235;-72
2021/01/28 12:00:44;;;;;;;;;;;;;;;;;;5076265;28;904;-71
2021/01/28 12:03:09;;;;;;;;;;;;;;;;;;5077292;28;865;-71
2021/01/28 12:05:34;;;;;;;;;;;;;;;;;;5069531;28;1898;-72
2021/01/28 12:08:00;;;;;;;;;;;;;;;;;;5058059;28;1264;-72
2021/01/28 12:10:26;;;;;;;;;;;;;;;;;;5057296;28;940;-70
2021/01/28 12:12:51;;;;;;;;;;;;;;;;;;5057103;28;1192;-70
2021/01/28 12:15:18;;;;;;;;;;;;;;;;;;5055993;28;1329;-70
2021/01/28 12:17:43;;;;;;;;;;;;;;;;;;5055760;28;1322;-70
2021/01/28 12:20:09;;;;;;;;;;;;;;;;;;5056236;28;1355;-71
2021/01/28 12:22:35;;;;;;;;;;;;;;;;;;5055573;28;1047;-70
2021/01/28 12:25:01;;;;;;;;;;;;;;;;;;5055630;28;2007;-72
2021/01/28 12:27:27;;;;;;;;;;;;;;;;;;5057114;28;951;-70
2021/01/28 12:29:52;;;;;;;;;;;;;;;;;;5056760;28;845;-72
2021/01/28 12:32:18;;;;;;;;;;;;;;;;;;5055496;28;1278;-69
2021/01/28 12:34:43;;;;;;;;;;;;;;;;;;5055616;28;1338;-72
2021/01/28 12:37:08;;;;;;;;;;;;;;;;;;5056831;28;900;-70
2021/01/28 12:39:33;;;;;;;;;;;;;;;;;;5056949;28;897;-71
2021/01/28 12:41:59;;;;;;;;;;;;;;;;;;5055438;28;1023;-71
2021/01/28 12:44:25;;;;;;;;;;;;;;;;;;5056289;28;1898;-71
2021/01/28 12:46:50;;;;;;;;;;;;;;;;;;5055410;28;1389;-71
2021/01/28 12:49:16;;;;;;;;;;;;;;;;;;5056651;28;813;-71
2021/01/28 12:51:41;;;;;;;;;;;;;;;;;;5056609;28;853;-72
2021/01/28 12:54:07;;;;;;;;;;;;;;;;;;5055059;28;1225;-71
2021/01/28 12:56:32;;;;;;;;;;;;;;;;;;5056381;28;1298;-70
2021/01/28 12:58:57;;;;;;;;;;;;;;;;;;5056346;28;1138;-72
2021/01/28 13:01:23;;;;;;;;;;;;;;;;;;5055573;28;1310;-69
2021/01/28 13:03:48;;;;;;;;;;;;;;;;;;5055939;28;777;-71
2021/01/28 13:06:13;;;;;;;;;;;;;;;;;;5061858;28;1916;-71
2021/01/28 13:08:42;;;;;;;;;;;;;;;;;;5076289;28;868;-70
2021/01/28 13:11:07;;;;;;;;;;;;;;;;;;5068901;28;1953;-69
2021/01/28 13:13:32;;;;;;;;;;;;;;;;;;5062311;28;1384;-71
2021/01/28 13:15:57;;;;;;;;;;;;;;;;;;5066370;28;1730;-69
2021/01/28 13:18:24;;;;;;;;;;;;;;;;;;5065933;28;1672;-71
2021/01/28 13:20:49;;;;;;;;;;;;;;;;;;5064789;28;1660;-72
2021/01/28 13:23:14;;;;;;;;;;;;;;;;;;5061218;28;1807;-72
2021/01/28 13:25:40;;;;;;;;;;;;;;;;;;5062698;28;1897;-72
2021/01/28 13:28:05;;;;;;;;;;;;;;;;;;5066042;28;1415;-72
2021/01/28 13:30:30;;;;;;;;;;;;;;;;;;5064439;28;1486;-70
2021/01/28 13:32:56;;;;;;;;;;;;;;;;;;5064161;28;1720;-72
2021/01/28 13:35:23;;;;;;;;;;;;;;;;;;5067207;28;1582;-71
2021/01/28 13:37:48;;;;;;;;;;;;;;;;;;5063557;28;1471;-70
2021/01/28 13:40:15;;;;;;;;;;;;;;;;;;5066613;28;1734;-69
2021/01/28 13:42:40;;;;;;;;;;;;;;;;;;5063509;28;1582;-71
2021/01/28 13:45:07;;;;;;;;;;;;;;;;;;5058349;28;1893;-73
2021/01/28 13:47:32;;;;;;;;;;;;;;;;;;5053976;28;1007;-70
2021/01/28 13:49:57;;;;;;;;;;;;;;;;;;5055462;28;838;-71
2021/01/28 13:52:23;;;;;;;;;;;;;;;;;;5055197;28;813;-70
2021/01/28 13:54:48;;;;;;;;;;;;;;;;;;5055032;28;1282;-70
2021/01/28 13:57:13;;;;;;;;;;;;;;;;;;5053936;28;877;-69
2021/01/28 13:59:39;;;;;;;;;;;;;;;;;;5055112;28;933;-72
2021/01/28 14:02:05;;;;;;;;;;;;;;;;;;5053770;28;1361;-71
2021/01/28 14:04:31;;;;;;;;;;;;;;;;;;5053844;28;1901;-69
2021/01/28 14:06:56;;;;;;;;;;;;;;;;;;5065313;28;1483;-71
2021/01/28 14:09:22;;;;;;;;;;;;;;;;;;5075107;28;909;-69
2021/01/28 14:11:47;;;;;;;;;;;;;;;;;;5074829;28;972;-72
2021/01/28 14:14:12;;;;;;;;;;;;;;;;;;5073385;28;1007;-70
2021/01/28 14:16:38;;;;;;;;;;;;;;;;;;5074813;28;1416;-72
2021/01/28 14:19:03;;;;;;;;;;;;;;;;;;5074844;28;995;-71
2021/01/28 14:21:28;;;;;;;;;;;;;;;;;;5073788;28;880;-72
2021/01/28 14:23:53;;;;;;;;;;;;;;;;;;5074679;28;865;-72
2021/01/28 14:26:19;;;;;;;;;;;;;;;;;;5074678;28;1913;-71
2021/01/28 14:28:44;;;;;;;;;;;;;;;;;;5074642;28;884;-72
2021/01/28 14:31:09;;;;;;;;;;;;;;;;;;5074674;28;1029;-70
2021/01/28 14:33:34;;;;;;;;;;;;;;;;;;5074571;28;873;-69
2021/01/28 14:36:00;;;;;;;;;;;;;;;;;;5074608;28;1298;-69
2021/01/28 14:38:26;;;;;;;;;;;;;;;;;;5074802;28;837;-72
2021/01/28 14:40:52;;;;;;;;;;;;;;;;;;5073209;28;1382;-70
2021/01/28 14:43:17;;;;;;;;;;;;;;;;;;5073195;28;1170;-70
2021/01/28 14:45:42;;;;;;;;;;;;;;;;;;5074485;28;1977;-69
2021/01/28 14:48:07;;;;;;;;;;;;;;;;;;5074225;28;1054;-69
2021/01/28 14:50:33;;;;;;;;;;;;;;;;;;5074045;28;889;-70
2021/01/28 14:52:58;;;;;;;;;;;;;;;;;;5072935;28;1011;-72
2021/01/28 14:55:23;;;;;;;;;;;;;;;;;;5073267;28;1365;-70
2021/01/28 14:57:49;;;;;;;;;;;;;;;;;;5074261;28;970;-70
2021/01/28 15:00:15;;;;;;;;;;;;;;;;;;5072893;28;853;-70
2021/01/28 15:02:40;;;;;;;;;;;;;;;;;;5072856;28;1217;-72
2021/01/28 15:05:06;;;;;;;;;;;;;;;;;;5074118;28;1898;-70
2021/01/28 15:07:31;;;;;;;;;;;;;;;;;;5074356;28;885;-72
2021/01/28 15:09:56;;;;;;;;;;;;;;;;;;5074368;28;959;-69
2021/01/28 15:12:21;;;;;;;;;;;;;;;;;;5074171;28;935;-70
2021/01/28 15:14:46;;;;;;;;;;;;;;;;;;5074024;28;1349;-70
2021/01/28 15:17:12;;;;;;;;;;;;;;;;;;5074012;28;880;-69
2021/01/28 15:19:37;;;;;;;;;;;;;;;;;;5074035;28;869;-69
2021/01/28 15:22:02;;;;;;;;;;;;;;;;;;5074037;28;817;-71
2021/01/28 15:24:28;;;;;;;;;;;;;;;;;;5074158;28;805;-71
2021/01/28 15:26:53;;;;;;;;;;;;;;;;;;5074264;28;1954;-71
2021/01/28 15:29:18;;;;;;;;;;;;;;;;;;5074274;28;861;-69
2021/01/28 15:31:43;;;;;;;;;;;;;;;;;;5074274;28;908;-70
2021/01/28 15:34:09;;;;;;;;;;;;;;;;;;5072795;28;1383;-72
2021/01/28 15:36:34;;;;;;;;;;;;;;;;;;5072633;28;1427;-70
2021/01/28 15:38:59;;;;;;;;;;;;;;;;;;5074098;28;943;-71
2021/01/28 15:41:25;;;;;;;;;;;;;;;;;;5072847;28;1213;-71
2021/01/28 15:43:50;;;;;;;;;;;;;;;;;;5072474;28;834;-69
2021/01/28 15:46:15;;;;;;;;;;;;;;;;;;5073893;28;1906;-71
2021/01/28 15:48:41;;;;;;;;;;;;;;;;;;5074062;28;928;-69
2021/01/28 15:51:06;;;;;;;;;;;;;;;;;;5074171;28;873;-70
2021/01/28 15:53:31;;;;;;;;;;;;;;;;;;5072274;28;806;-68
2021/01/28 15:55:57;;;;;;;;;;;;;;;;;;5072416;28;1361;-69
2021/01/28 15:58:22;;;;;;;;;;;;;;;;;;5072382;28;968;-69
2021/01/28 16:00:47;;;;;;;;;;;;;;;;;;5075344;28;844;-71
2021/01/28 16:03:13;;;;;;;;;;;;;;;;;;5077334;28;944;-71
2021/01/28 16:05:39;;;;;;;;;;;;;;;;;;5077292;28;1906;-69
2021/01/28 16:08:05;;;;;;;;;;;;;;;;;;5059358;28;912;-70
2021/01/28 16:10:30;;;;;;;;;;;;;;;;;;5075913;28;952;-70
2021/01/28 16:12:55;;;;;;;;;;;;;;;;;;5076004;28;1237;-69
2021/01/28 16:15:22;;;;;;;;;;;;;;;;;;5077134;28;1298;-70
2021/01/28 16:17:47;;;;;;;;;;;;;;;;;;5077247;28;933;-71
2021/01/28 16:20:13;;;;;;;;;;;;;;;;;;5075880;28;798;-70
2021/01/28 16:22:38;;;;;;;;;;;;;;;;;;5075437;28;1216;-70
2021/01/28 16:25:05;;;;;;;;;;;;;;;;;;5075650;28;1897;-70
2021/01/28 16:27:30;;;;;;;;;;;;;;;;;;5076957;28;904;-69
2021/01/28 16:29:55;;;;;;;;;;;;;;;;;;5077020;28;829;-70
2021/01/28 16:32:21;;;;;;;;;;;;;;;;;;5075373;28;923;-68
2021/01/28 16:34:46;;;;;;;;;;;;;;;;;;5076760;28;1278;-70
2021/01/28 16:37:11;;;;;;;;;;;;;;;;;;5076592;28;974;-70
2021/01/28 16:39:36;;;;;;;;;;;;;;;;;;5076880;28;1046;-68
2021/01/28 16:42:03;;;;;;;;;;;;;;;;;;5075319;28;1003;-68
2021/01/28 16:44:28;;;;;;;;;;;;;;;;;;5076445;28;872;-69
2021/01/28 16:46:53;;;;;;;;;;;;;;;;;;5076562;28;1890;-70
2021/01/28 16:49:18;;;;;;;;;;;;;;;;;;5075915;28;1224;-69
2021/01/28 16:51:44;;;;;;;;;;;;;;;;;;5076670;28;943;-69
2021/01/28 16:54:09;;;;;;;;;;;;;;;;;;5075037;28;1528;-70
2021/01/28 16:56:35;;;;;;;;;;;;;;;;;;5076222;28;1313;-71
2021/01/28 16:59:00;;;;;;;;;;;;;;;;;;5075728;28;1211;-71
2021/01/28 17:01:25;;;;;;;;;;;;;;;;;;5076465;28;868;-70
2021/01/28 17:03:51;;;;;;;;;;;;;;;;;;5074922;28;813;-72
2021/01/28 17:06:16;;;;;;;;;;;;;;;;;;5075925;28;1893;-70
2021/01/28 17:08:41;;;;;;;;;;;;;;;;;;5076485;28;821;-70
2021/01/28 17:11:06;;;;;;;;;;;;;;;;;;5074771;28;1403;-70